createdAt,value
2022-10-17T00:00:21.750Z,98720.78
2022-10-17T00:02:48.329Z,98720.44
2022-10-17T00:05:17.374Z,98720.06
2022-10-17T00:07:43.729Z,98724.09
2022-10-17T00:10:10.478Z,98720.22
2022-10-17T00:12:40.144Z,98715.66
2022-10-17T00:15:08.486Z,98715.38
2022-10-17T00:17:36.297Z,98709.97
2022-10-17T00:20:02.683Z,98715.75
2022-10-17T00:22:29.767Z,98726.06
2022-10-17T00:24:56.469Z,98727.59
2022-10-17T00:27:22.809Z,98720.13
2022-10-17T00:29:50.918Z,98728.63
2022-10-17T00:32:21.984Z,98722.03
2022-10-17T00:34:50.646Z,98728.44
2022-10-17T00:37:16.987Z,98719.53
2022-10-17T00:39:44.822Z,98722.41
2022-10-17T00:42:12.992Z,98726.66
2022-10-17T00:44:39.873Z,98725.75
2022-10-17T00:47:06.930Z,98722.59
2022-10-17T00:49:34.185Z,98719.88
2022-10-17T00:52:01.654Z,98722.97
2022-10-17T00:54:31.844Z,98726.91
2022-10-17T00:57:03.225Z,98729.78
2022-10-17T00:59:30.644Z,98738.97
2022-10-17T01:02:02.794Z,98730.91
2022-10-17T01:04:29.121Z,98734.03
2022-10-17T01:06:56.612Z,98730.72
2022-10-17T01:09:23.214Z,98726.47
2022-10-17T01:11:58.923Z,98730.91
2022-10-17T01:14:32.998Z,98734.22
2022-10-17T01:17:02.501Z,98731.63
2022-10-17T01:19:34.352Z,98732.59
2022-10-17T01:22:08.493Z,98727.47
2022-10-17T01:24:41.223Z,98717.91
2022-10-17T01:27:19.501Z,98725.97
2022-10-17T01:30:05.762Z,98721.44
2022-10-17T01:32:44.865Z,98720.63
2022-10-17T01:35:14.189Z,98716.41
2022-10-17T01:37:45.296Z,98713.28
2022-10-17T01:40:14.979Z,98699.03
2022-10-17T01:42:44.351Z,98697.41
2022-10-17T01:45:13.784Z,98694.97
2022-10-17T01:47:40.363Z,98695.78
2022-10-17T01:50:08.514Z,98684.63
2022-10-17T01:52:38.550Z,98681.00
2022-10-17T01:55:07.054Z,98678.59
2022-10-17T01:57:34.871Z,98683.16
2022-10-17T02:00:02.755Z,98673.75
2022-10-17T02:02:29.399Z,98672.22
2022-10-17T02:04:56.302Z,98668.97
2022-10-17T02:07:22.702Z,98664.75
2022-10-17T02:09:50.622Z,98663.22
2022-10-17T02:12:17.299Z,98660.16
2022-10-17T02:14:46.631Z,98651.03
2022-10-17T02:17:19.145Z,98655.06
2022-10-17T02:20:01.092Z,98655.81
2022-10-17T02:22:27.543Z,98650.78
2022-10-17T02:25:06.558Z,98647.63
2022-10-17T02:27:51.775Z,98649.31
2022-10-17T02:30:24.958Z,98644.19
2022-10-17T02:33:12.738Z,98644.66
2022-10-17T02:35:40.939Z,98646.19
2022-10-17T02:38:09.067Z,98638.16
2022-10-17T02:40:35.773Z,98638.16
2022-10-17T02:43:06.107Z,98642.91
2022-10-17T02:45:38.268Z,98638.69
2022-10-17T02:48:23.475Z,98645.28
2022-10-17T02:50:58.978Z,98650.25
2022-10-17T02:53:27.795Z,98649.91
2022-10-17T02:55:55.586Z,98657.19
2022-10-17T02:58:25.340Z,98657.06
2022-10-17T03:00:51.758Z,98652.72
2022-10-17T03:03:22.312Z,98656.44
2022-10-17T03:05:48.721Z,98656.44
2022-10-17T03:08:16.245Z,98651.41
2022-10-17T03:10:42.568Z,98642.59
2022-10-17T03:13:12.940Z,98643.97
2022-10-17T03:15:39.261Z,98645.06
2022-10-17T03:18:06.834Z,98651.09
2022-10-17T03:20:34.074Z,98639.06
2022-10-17T03:23:00.414Z,98644.59
2022-10-17T03:25:27.263Z,98646.47
2022-10-17T03:27:53.577Z,98645.06
2022-10-17T03:30:23.363Z,98638.69
2022-10-17T03:32:49.696Z,98645.88
2022-10-17T03:35:16.050Z,98642.34
2022-10-17T03:37:43.155Z,98638.38
2022-10-17T03:40:10.969Z,98637.47
2022-10-17T03:42:40.043Z,98644.66
2022-10-17T03:45:07.351Z,98652.34
2022-10-17T03:47:35.116Z,98657.63
2022-10-17T03:50:01.457Z,98650.88
2022-10-17T03:52:30.264Z,98653.34
2022-10-17T03:54:56.589Z,98652.13
2022-10-17T03:57:22.905Z,98648.44
2022-10-17T03:59:52.550Z,98657.13
2022-10-17T04:02:18.925Z,98661.91
2022-10-17T04:04:47.171Z,98652.13
2022-10-17T04:07:13.563Z,98648.88
2022-10-17T04:09:40.019Z,98670.41
2022-10-17T04:12:06.362Z,98665.19
2022-10-17T04:14:36.941Z,98668.06
2022-10-17T04:17:04.841Z,98663.34
2022-10-17T04:19:31.235Z,98662.78
2022-10-17T04:21:57.604Z,98660.34
2022-10-17T04:24:25.140Z,98659.47
2022-10-17T04:26:51.496Z,98662.03
2022-10-17T04:29:19.144Z,98669.97
2022-10-17T04:31:45.554Z,98670.28
2022-10-17T04:34:14.466Z,98671.16
2022-10-17T04:36:43.612Z,98679.09
2022-10-17T04:39:10.396Z,98675.72
2022-10-17T04:41:39.088Z,98672.84
2022-10-17T04:44:05.481Z,98677.31
2022-10-17T04:46:33.116Z,98674.94
2022-10-17T04:48:59.503Z,98673.66
2022-10-17T04:51:26.671Z,98673.66
2022-10-17T04:53:55.589Z,98670.28
2022-10-17T04:56:22.294Z,98678.47
2022-10-17T04:58:49.035Z,98668.56
2022-10-17T05:01:16.770Z,98664.41
2022-10-17T05:03:43.172Z,98666.94
2022-10-17T05:06:15.420Z,98670.97
2022-10-17T05:08:41.748Z,98670.91
2022-10-17T05:11:22.835Z,98667.84
2022-10-17T05:13:54.166Z,98670.16
2022-10-17T05:16:21.002Z,98673.00
2022-10-17T05:18:53.006Z,98670.59
2022-10-17T05:21:19.723Z,98674.75
2022-10-17T05:23:47.139Z,98668.38
2022-10-17T05:26:14.271Z,98674.75
2022-10-17T05:28:41.003Z,98674.31
2022-10-17T05:31:08.684Z,98662.84
2022-10-17T05:33:36.389Z,98666.44
2022-10-17T05:36:02.727Z,98653.00
2022-10-17T05:38:31.493Z,98660.06
2022-10-17T05:40:58.812Z,98657.19
2022-10-17T05:43:26.444Z,98647.94
2022-10-17T05:46:00.511Z,98663.06
2022-10-17T05:48:28.607Z,98665.13
2022-10-17T05:51:03.068Z,98670.34
2022-10-17T05:53:33.375Z,98676.59
2022-10-17T05:56:00.138Z,98677.56
2022-10-17T06:01:15.128Z,98668.25
2022-10-17T06:03:42.896Z,98662.78
2022-10-17T06:06:13.212Z,98670.00
2022-10-17T06:08:39.603Z,98670.47
2022-10-17T06:11:10.065Z,98668.09
2022-10-17T06:13:37.751Z,98683.03
2022-10-17T06:16:04.084Z,98682.53
2022-10-17T06:18:30.499Z,98679.72
2022-10-17T06:21:04.358Z,98685.22
2022-10-17T06:23:31.473Z,98678.91
2022-10-17T06:25:58.557Z,98678.97
2022-10-17T06:28:25.239Z,98694.22
2022-10-17T06:30:51.651Z,98700.66
2022-10-17T06:33:18.074Z,98703.63
2022-10-17T06:35:45.006Z,98700.09
2022-10-17T06:38:11.330Z,98689.97
2022-10-17T06:40:37.645Z,98692.38
2022-10-17T06:43:05.583Z,98698.78
2022-10-17T06:45:31.949Z,98694.38
2022-10-17T06:47:59.839Z,98696.34
2022-10-17T06:50:27.104Z,98705.09
2022-10-17T06:52:53.492Z,98699.16
2022-10-17T06:55:22.773Z,98706.88
2022-10-17T06:57:49.807Z,98695.81
2022-10-17T07:00:16.220Z,98692.28
2022-10-17T07:02:44.065Z,98693.97
2022-10-17T07:05:13.439Z,98691.66
2022-10-17T07:07:43.051Z,98689.44
2022-10-17T07:10:12.536Z,98688.03
2022-10-17T07:12:39.166Z,98697.88
2022-10-17T07:15:06.703Z,98688.75
2022-10-17T07:17:34.556Z,98696.50
2022-10-17T07:20:01.016Z,98695.75
2022-10-17T07:22:27.654Z,98696.56
2022-10-17T07:24:54.457Z,98688.28
2022-10-17T07:27:21.014Z,98695.88
2022-10-17T07:29:47.347Z,98700.72
2022-10-17T07:32:16.174Z,98701.47
2022-10-17T07:34:43.089Z,98707.38
2022-10-17T07:37:10.688Z,98707.81
2022-10-17T07:39:40.054Z,98709.47
2022-10-17T07:42:07.636Z,98717.06
2022-10-17T07:44:35.444Z,98728.66
2022-10-17T07:47:02.800Z,98727.16
2022-10-17T07:49:31.952Z,98723.59
2022-10-17T07:51:58.343Z,98728.38
2022-10-17T07:54:28.494Z,98732.44
2022-10-17T07:56:54.829Z,98724.00
2022-10-17T07:59:21.208Z,98728.44
2022-10-17T08:01:47.850Z,98727.28
2022-10-17T08:04:16.721Z,98725.31
2022-10-17T08:06:43.812Z,98728.63
2022-10-17T08:09:10.143Z,98728.25
2022-10-17T08:11:37.416Z,98723.97
2022-10-17T08:14:04.135Z,98724.88
2022-10-17T08:16:30.700Z,98711.03
2022-10-17T08:18:57.310Z,98721.91
2022-10-17T08:21:23.668Z,98716.03
2022-10-17T08:23:53.850Z,98716.09
2022-10-17T08:26:20.235Z,98722.50
2022-10-17T08:28:47.942Z,98718.09
2022-10-17T08:31:18.128Z,98718.16
2022-10-17T08:33:44.457Z,98717.81
2022-10-17T08:36:12.305Z,98716.25
2022-10-17T08:38:43.540Z,98716.28
2022-10-17T08:41:14.504Z,98708.69
2022-10-17T08:43:47.347Z,98715.47
2022-10-17T08:48:47.059Z,98699.13
2022-10-17T08:51:18.404Z,98701.53
2022-10-17T08:53:50.118Z,98704.44
2022-10-17T08:56:49.928Z,98691.66
2022-10-17T08:59:13.867Z,98695.69
2022-10-17T09:01:40.784Z,98690.09
2022-10-17T09:04:13.319Z,98705.78
2022-10-17T09:06:40.938Z,98702.22
2022-10-17T09:09:10.343Z,98700.34
2022-10-17T09:11:41.773Z,98693.63
2022-10-17T09:14:17.388Z,98694.03
2022-10-17T09:17:13.396Z,98694.09
2022-10-17T09:19:44.223Z,98706.19
2022-10-17T09:22:19.626Z,98700.09
2022-10-17T09:24:48.008Z,98696.13
2022-10-17T09:27:23.465Z,98692.09
2022-10-17T09:29:50.932Z,98707.34
2022-10-17T09:32:23.298Z,98697.72
2022-10-17T09:34:49.819Z,98700.84
2022-10-17T09:37:20.787Z,98700.50
2022-10-17T09:39:47.142Z,98698.88
2022-10-17T09:42:15.487Z,98706.53
2022-10-17T09:44:52.347Z,98710.59
2022-10-17T09:47:26.830Z,98712.28
2022-10-17T09:49:57.227Z,98711.50
2022-10-17T09:52:47.552Z,98715.19
2022-10-17T09:55:17.989Z,98711.19
2022-10-17T09:57:54.662Z,98709.97
2022-10-17T10:00:23.532Z,98706.78
2022-10-17T10:02:50.079Z,98698.72
2022-10-17T10:05:17.480Z,98698.34
2022-10-17T10:08:00.570Z,98709.59
2022-10-17T10:10:28.131Z,98716.44
2022-10-17T10:13:05.352Z,98704.78
2022-10-17T10:15:38.799Z,98715.22
2022-10-17T10:18:25.134Z,98726.50
2022-10-17T10:21:03.456Z,98715.22
2022-10-17T10:23:31.700Z,98720.88
2022-10-17T10:25:58.562Z,98733.34
2022-10-17T10:28:31.730Z,98735.75
2022-10-17T10:30:58.873Z,98725.69
2022-10-17T10:33:26.305Z,98726.09
2022-10-17T10:35:56.261Z,98732.53
2022-10-17T10:38:22.987Z,98729.72
2022-10-17T10:40:55.037Z,98728.50
2022-10-17T10:43:27.576Z,98739.34
2022-10-17T10:45:53.923Z,98736.53
2022-10-17T10:48:24.444Z,98737.75
2022-10-17T10:50:50.741Z,98747.38
2022-10-17T10:53:36.168Z,98756.97
2022-10-17T10:56:03.012Z,98744.41
2022-10-17T10:58:44.446Z,98738.38
2022-10-17T11:01:19.561Z,98736.66
2022-10-17T11:04:09.003Z,98732.34
2022-10-17T11:06:36.363Z,98728.75
2022-10-17T11:09:06.466Z,98725.56
2022-10-17T11:11:33.984Z,98722.66
2022-10-17T11:14:16.507Z,98729.19
2022-10-17T11:17:05.251Z,98719.00
2022-10-17T11:19:44.029Z,98711.22
2022-10-17T11:22:49.868Z,98714.25
2022-10-17T11:25:28.545Z,98719.78
2022-10-17T11:28:03.824Z,98719.09
2022-10-17T11:30:40.951Z,98721.38
2022-10-17T11:33:08.551Z,98717.88
2022-10-17T11:35:46.382Z,98724.28
2022-10-17T11:38:18.984Z,98715.25
2022-10-17T11:40:46.037Z,98708.94
2022-10-17T11:43:17.227Z,98718.59
2022-10-17T11:45:46.157Z,98712.94
2022-10-17T11:48:13.562Z,98725.78
2022-10-17T11:53:44.583Z,98731.47
2022-10-17T11:56:12.202Z,98741.16
2022-10-17T11:59:03.274Z,98757.28
2022-10-17T12:01:38.932Z,98762.50
2022-10-17T12:04:13.849Z,98754.00
2022-10-17T12:06:57.447Z,98762.91
2022-10-17T12:09:44.931Z,98765.66
2022-10-17T12:12:12.626Z,98773.31
2022-10-17T12:14:47.107Z,98775.25
2022-10-17T12:17:49.155Z,98774.91
2022-10-17T12:20:23.468Z,98768.88
2022-10-17T12:22:50.039Z,98786.56
2022-10-17T12:25:19.674Z,98780.50
2022-10-17T12:27:47.553Z,98786.59
2022-10-17T12:30:26.553Z,98791.03
2022-10-17T12:33:05.646Z,98783.00
2022-10-17T12:35:33.620Z,98793.56
2022-10-17T12:38:03.880Z,98803.66
2022-10-17T12:40:48.998Z,98795.22
2022-10-17T12:43:15.673Z,98794.44
2022-10-17T12:45:57.513Z,98784.38
2022-10-17T12:48:38.494Z,98805.66
2022-10-17T12:54:11.985Z,98807.25
2022-10-17T12:56:42.013Z,98796.75
2022-10-17T12:59:09.840Z,98791.06
2022-10-17T13:01:39.999Z,98796.69
2022-10-17T13:04:08.724Z,98797.84
2022-10-17T13:06:57.101Z,98799.09
2022-10-17T13:09:30.563Z,98799.50
2022-10-17T13:12:07.288Z,98797.84
2022-10-17T13:14:33.991Z,98790.22
2022-10-17T13:17:08.036Z,98798.75
2022-10-17T13:19:42.266Z,98799.53
2022-10-17T13:22:49.322Z,98810.88
2022-10-17T13:25:16.224Z,98807.22
2022-10-17T13:27:42.684Z,98820.13
2022-10-17T13:30:22.153Z,98814.50
2022-10-17T13:32:50.790Z,98813.69
2022-10-17T13:35:31.723Z,98810.91
2022-10-17T13:38:08.609Z,98807.25
2022-10-17T13:40:49.713Z,98805.22
2022-10-17T13:43:20.749Z,98816.50
2022-10-17T13:45:50.416Z,98822.13
2022-10-17T13:48:42.813Z,98833.41
2022-10-17T13:51:11.350Z,98824.16
2022-10-17T13:53:39.937Z,98826.13
2022-10-17T13:56:27.921Z,98832.22
2022-10-17T13:59:07.801Z,98835.88
2022-10-17T14:01:37.013Z,98830.66
2022-10-17T14:04:09.315Z,98829.84
2022-10-17T14:06:47.668Z,98835.47
2022-10-17T14:09:25.552Z,98839.09
2022-10-17T14:12:01.432Z,98841.53
2022-10-17T14:14:27.850Z,98834.28
2022-10-17T14:16:54.263Z,98843.56
2022-10-17T14:19:20.861Z,98831.88
2022-10-17T14:21:49.475Z,98835.53
2022-10-17T14:24:29.304Z,98829.09
2022-10-17T14:26:59.563Z,98838.75
2022-10-17T14:29:29.902Z,98834.31
2022-10-17T14:31:57.139Z,98833.09
2022-10-17T14:34:24.645Z,98848.00
2022-10-17T14:36:55.869Z,98846.00
2022-10-17T14:39:26.303Z,98857.25
2022-10-17T14:41:52.624Z,98861.28
2022-10-17T14:44:20.591Z,98864.50
2022-10-17T14:46:50.545Z,98870.94
2022-10-17T14:49:24.034Z,98864.50
2022-10-17T14:52:13.409Z,98868.53
2022-10-17T14:54:44.291Z,98872.16
2022-10-17T14:57:33.604Z,98880.19
2022-10-17T14:59:59.959Z,98886.22
2022-10-17T15:02:28.127Z,98893.03
2022-10-17T15:04:54.761Z,98893.84
2022-10-17T15:07:21.279Z,98892.97
2022-10-17T15:09:48.253Z,98904.59
2022-10-17T15:12:15.690Z,98900.56
2022-10-17T15:14:43.240Z,98907.75
2022-10-17T15:17:13.617Z,98904.56
2022-10-17T15:19:39.952Z,98906.53
2022-10-17T15:22:06.484Z,98902.16
2022-10-17T15:24:32.842Z,98906.94
2022-10-17T15:26:59.166Z,98906.94
2022-10-17T15:29:25.752Z,98914.91
2022-10-17T15:31:52.072Z,98906.56
2022-10-17T15:34:18.428Z,98911.63
2022-10-17T15:36:48.685Z,98911.50
2022-10-17T15:39:15.016Z,98921.19
2022-10-17T15:41:41.353Z,98924.00
2022-10-17T15:44:07.707Z,98920.00
2022-10-17T15:46:34.195Z,98927.50
2022-10-17T15:49:09.821Z,98929.03
2022-10-17T15:51:36.159Z,98928.69
2022-10-17T15:54:02.565Z,98925.03
2022-10-17T15:56:29.780Z,98931.06
2022-10-17T15:58:56.125Z,98940.94
2022-10-17T16:01:23.595Z,98939.31
2022-10-17T16:03:50.693Z,98943.25
2022-10-17T16:06:17.929Z,98944.41
2022-10-17T16:08:44.506Z,98954.72
2022-10-17T16:11:17.983Z,98954.19
2022-10-17T16:13:45.669Z,98960.81
2022-10-17T16:16:11.995Z,98962.38
2022-10-17T16:18:38.400Z,98965.06
2022-10-17T16:21:04.717Z,98966.28
2022-10-17T16:23:31.051Z,98969.53
2022-10-17T16:25:57.402Z,98964.47
2022-10-17T16:28:23.781Z,98970.16
2022-10-17T16:30:50.160Z,98974.25
2022-10-17T16:33:16.478Z,98987.81
2022-10-17T16:35:42.895Z,98985.56
2022-10-17T16:38:09.268Z,98978.38
2022-10-17T16:40:35.613Z,98985.13
2022-10-17T16:43:01.934Z,98991.13
2022-10-17T16:45:28.335Z,98994.66
2022-10-17T16:47:54.740Z,98995.44
2022-10-17T16:50:21.108Z,98991.06
2022-10-17T16:52:47.425Z,99000.00
2022-10-17T16:55:18.714Z,99002.31
2022-10-17T17:00:16.581Z,98990.28
2022-10-17T17:02:42.968Z,98995.41
2022-10-17T17:05:09.520Z,98995.69
2022-10-17T17:07:35.945Z,99008.56
2022-10-17T17:10:02.433Z,99004.94
2022-10-17T17:12:28.761Z,99006.44
2022-10-17T17:14:55.124Z,99015.66
2022-10-17T17:17:30.656Z,99007.66
2022-10-17T17:20:07.911Z,99021.66
2022-10-17T17:22:34.499Z,99017.38
2022-10-17T17:25:00.810Z,99023.28
2022-10-17T17:27:28.126Z,99020.16
2022-10-17T17:29:54.636Z,99040.22
2022-10-17T17:32:21.018Z,99037.84
2022-10-17T17:34:47.727Z,99047.44
2022-10-17T17:37:14.103Z,99050.97
2022-10-17T17:39:40.718Z,99057.72
2022-10-17T17:42:07.043Z,99059.25
2022-10-17T17:44:33.420Z,99069.75
2022-10-17T17:46:59.809Z,99070.88
2022-10-17T17:49:26.239Z,99084.94
2022-10-17T17:51:52.624Z,99082.34
2022-10-17T17:54:19.036Z,99090.72
2022-10-17T17:56:45.381Z,99088.34
2022-10-17T17:59:12.352Z,99091.53
2022-10-17T18:01:39.262Z,99091.13
2022-10-17T18:04:06.834Z,99101.53
2022-10-17T18:06:33.349Z,99105.47
2022-10-17T18:08:59.836Z,99102.25
2022-10-17T18:11:27.086Z,99098.47
2022-10-17T18:13:56.338Z,99104.66
2022-10-17T18:16:22.669Z,99100.47
2022-10-17T18:18:49.041Z,99106.03
2022-10-17T18:21:15.615Z,99105.75
2022-10-17T18:23:42.407Z,99102.56
2022-10-17T18:26:09.287Z,99112.16
2022-10-17T18:28:36.222Z,99101.94
2022-10-17T18:31:09.778Z,99109.72
2022-10-17T18:33:36.190Z,99110.53
2022-10-17T18:36:06.949Z,99116.00
2022-10-17T18:38:33.635Z,99119.19
2022-10-17T18:41:16.038Z,99127.97
2022-10-17T18:43:42.683Z,99132.78
2022-10-17T18:46:12.442Z,99138.41
2022-10-17T18:48:41.631Z,99142.06
2022-10-17T18:51:08.052Z,99138.44
2022-10-17T18:53:34.407Z,99145.22
2022-10-17T18:56:01.354Z,99143.13
2022-10-17T18:58:27.668Z,99148.66
2022-10-17T19:00:53.994Z,99146.38
2022-10-17T19:03:20.368Z,99144.22
2022-10-17T19:05:47.473Z,99149.03
2022-10-17T19:08:14.442Z,99153.00
2022-10-17T19:10:41.623Z,99157.50
2022-10-17T19:13:09.158Z,99161.47
2022-10-17T19:15:35.547Z,99165.59
2022-10-17T19:18:01.904Z,99173.56
2022-10-17T19:20:28.318Z,99165.91
2022-10-17T19:22:54.698Z,99168.63
2022-10-17T19:25:21.071Z,99172.75
2022-10-17T19:27:47.636Z,99170.69
2022-10-17T19:30:14.038Z,99169.06
2022-10-17T19:32:40.701Z,99168.72
2022-10-17T19:35:07.299Z,99178.47
2022-10-17T19:37:34.292Z,99177.31
2022-10-17T19:40:00.693Z,99179.66
2022-10-17T19:42:27.010Z,99181.66
2022-10-17T19:44:53.352Z,99178.75
2022-10-17T19:47:19.685Z,99184.09
2022-10-17T19:49:49.923Z,99177.63
2022-10-17T19:52:16.491Z,99180.66
2022-10-17T19:54:42.888Z,99179.91
2022-10-17T19:57:10.527Z,99182.78
2022-10-17T19:59:37.075Z,99180.81
2022-10-17T20:02:03.562Z,99179.09
2022-10-17T20:04:30.010Z,99179.91
2022-10-17T20:06:59.731Z,99187.97
2022-10-17T20:09:26.436Z,99185.00
2022-10-17T20:11:52.751Z,99183.25
2022-10-17T20:14:19.078Z,99189.06
2022-10-17T20:16:50.020Z,99200.50
2022-10-17T20:19:16.383Z,99198.56
2022-10-17T20:21:42.893Z,99203.69
2022-10-17T20:24:09.858Z,99206.09
2022-10-17T20:26:38.765Z,99210.88
2022-10-17T20:29:08.745Z,99219.28
2022-10-17T20:31:35.271Z,99225.56
2022-10-17T20:34:01.670Z,99221.50
2022-10-17T20:36:28.003Z,99227.13
2022-10-17T20:38:55.058Z,99221.06
2022-10-17T20:41:21.495Z,99229.84
2022-10-17T20:43:49.592Z,99235.81
2022-10-17T20:46:29.464Z,99231.47
2022-10-17T20:49:01.778Z,99234.28
2022-10-17T20:51:28.172Z,99231.75
2022-10-17T20:53:54.495Z,99245.31
2022-10-17T20:56:21.736Z,99245.31
2022-10-17T20:58:54.815Z,99249.91
2022-10-17T21:01:21.270Z,99258.31
2022-10-17T21:03:47.806Z,99267.81
2022-10-17T21:06:14.245Z,99267.00
2022-10-17T21:08:40.587Z,99268.06
2022-10-17T21:11:26.154Z,99272.41
2022-10-17T21:13:56.567Z,99272.69
2022-10-17T21:16:23.041Z,99276.59
2022-10-17T21:18:49.466Z,99278.81
2022-10-17T21:21:19.872Z,99283.97
2022-10-17T21:23:46.729Z,99286.34
2022-10-17T21:26:13.049Z,99290.59
2022-10-17T21:28:39.753Z,99289.94
2022-10-17T21:31:22.466Z,99283.91
2022-10-17T21:33:49.507Z,99279.38
2022-10-17T21:36:16.791Z,99289.59
2022-10-17T21:38:43.669Z,99286.34
2022-10-17T21:41:10.306Z,99289.41
2022-10-17T21:43:36.756Z,99282.34
2022-10-17T21:46:03.932Z,99283.81
2022-10-17T21:48:30.388Z,99282.97
2022-10-17T21:50:57.807Z,99277.47
2022-10-17T21:53:24.356Z,99276.31
2022-10-17T21:55:50.698Z,99275.50
2022-10-17T21:58:17.007Z,99270.78
2022-10-17T22:00:43.323Z,99273.78
2022-10-17T22:03:12.638Z,99272.84
2022-10-17T22:05:39.013Z,99269.00
2022-10-17T22:08:05.487Z,99281.91
2022-10-17T22:10:31.793Z,99269.69
2022-10-17T22:12:58.116Z,99270.69
2022-10-17T22:15:24.447Z,99288.59
2022-10-17T22:17:50.770Z,99291.56
2022-10-17T22:20:17.146Z,99292.81
2022-10-17T22:22:43.457Z,99291.28
2022-10-17T22:25:09.826Z,99295.47
2022-10-17T22:27:36.142Z,99289.78
2022-10-17T22:30:02.471Z,99282.13
2022-10-17T22:32:28.842Z,99292.72
2022-10-17T22:34:55.175Z,99291.91
2022-10-17T22:37:21.565Z,99288.22
2022-10-17T22:39:47.888Z,99298.81
2022-10-17T22:42:14.247Z,99296.41
2022-10-17T22:44:40.630Z,99303.53
2022-10-17T22:47:06.933Z,99295.94
2022-10-17T22:49:33.532Z,99307.69
2022-10-17T22:51:59.891Z,99304.25
2022-10-17T22:54:26.250Z,99298.56
2022-10-17T22:56:52.579Z,99296.47
2022-10-17T22:59:18.907Z,99300.50
2022-10-17T23:01:45.344Z,99305.34
2022-10-17T23:04:11.709Z,99300.38
2022-10-17T23:06:38.031Z,99304.09
2022-10-17T23:09:04.370Z,99307.44
2022-10-17T23:11:30.681Z,99316.38
2022-10-17T23:13:57.028Z,99314.03
2022-10-17T23:16:23.355Z,99314.50
2022-10-17T23:18:49.684Z,99315.22
2022-10-17T23:21:16.013Z,99325.03
2022-10-17T23:23:42.353Z,99314.81
2022-10-17T23:26:09.912Z,99313.38
2022-10-17T23:28:36.611Z,99307.28
2022-10-17T23:31:13.031Z,99302.47
2022-10-17T23:33:41.225Z,99311.41
2022-10-17T23:36:08.628Z,99307.34
2022-10-17T23:38:34.941Z,99314.50
2022-10-17T23:41:01.276Z,99311.63
2022-10-17T23:43:28.222Z,99309.72
2022-10-17T23:45:54.571Z,99320.09
2022-10-17T23:48:20.903Z,99318.91
2022-10-17T23:50:47.226Z,99325.16
2022-10-17T23:53:13.550Z,99311.28
2022-10-17T23:55:39.887Z,99315.31
2022-10-17T23:58:06.194Z,99308.47
